createdAt,value
2023-04-07T00:01:26.234Z,98728.22
2023-04-07T00:03:34.017Z,98728.22
2023-04-07T00:05:39.336Z,98724.91
2023-04-07T00:07:52.980Z,98726.56
2023-04-07T00:10:01.310Z,98724.91
2023-04-07T00:12:07.355Z,98721.63
2023-04-07T00:14:12.399Z,98724.97
2023-04-07T00:16:17.983Z,98718.28
2023-04-07T00:18:23.023Z,98719.97
2023-04-07T00:20:30.850Z,98721.63
2023-04-07T00:22:36.385Z,98722.53
2023-04-07T00:24:41.384Z,98719.19
2023-04-07T00:26:46.667Z,98716.69
2023-04-07T00:28:52.231Z,98713.34
2023-04-07T00:30:57.525Z,98708.34
2023-04-07T00:33:03.038Z,98708.34
2023-04-07T00:35:09.427Z,98711.69
2023-04-07T00:37:17.496Z,98716.63
2023-04-07T00:39:23.048Z,98711.69
2023-04-07T00:41:28.680Z,98706.72
2023-04-07T00:43:33.765Z,98702.56
2023-04-07T00:45:40.424Z,98703.41
2023-04-07T00:47:46.296Z,98705.06
2023-04-07T00:49:51.605Z,98700.16
2023-04-07T00:51:57.668Z,98700.19
2023-04-07T00:54:05.666Z,98696.84
2023-04-07T00:56:11.373Z,98695.16
2023-04-07T00:58:16.983Z,98688.56
2023-04-07T01:00:22.846Z,98690.13
2023-04-07T01:02:37.117Z,98683.50
2023-04-07T01:04:50.171Z,98679.28
2023-04-07T01:07:00.042Z,98675.19
2023-04-07T01:09:22.242Z,98671.94
2023-04-07T01:11:33.454Z,98676.06
2023-04-07T01:13:46.110Z,98671.91
2023-04-07T01:16:01.202Z,98668.63
2023-04-07T01:18:18.400Z,98671.94
2023-04-07T01:20:29.673Z,98670.34
2023-04-07T01:22:46.546Z,98665.28
2023-04-07T01:26:11.305Z,98663.72
2023-04-07T01:28:47.691Z,98664.56
2023-04-07T01:30:59.707Z,98668.72
2023-04-07T01:33:07.550Z,98661.22
2023-04-07T01:35:16.650Z,98668.75
2023-04-07T01:37:23.180Z,98662.16
2023-04-07T01:39:29.901Z,98659.72
2023-04-07T01:41:36.390Z,98660.56
2023-04-07T01:43:45.120Z,98650.56
2023-04-07T01:45:51.605Z,98658.84
2023-04-07T01:48:00.367Z,98648.00
2023-04-07T01:50:07.240Z,98652.16
2023-04-07T01:52:14.178Z,98657.22
2023-04-07T01:54:20.528Z,98654.72
2023-04-07T01:56:25.790Z,98651.44
2023-04-07T01:58:32.879Z,98649.84
2023-04-07T02:00:38.239Z,98650.69
2023-04-07T02:02:53.568Z,98650.66
2023-04-07T02:05:07.932Z,98639.78
2023-04-07T02:07:22.599Z,98639.00
2023-04-07T02:09:32.912Z,98639.06
2023-04-07T02:11:38.877Z,98634.06
2023-04-07T02:13:45.417Z,98634.88
2023-04-07T02:15:52.907Z,98639.03
2023-04-07T02:18:02.348Z,98639.06
2023-04-07T02:20:12.846Z,98635.78
2023-04-07T02:22:19.222Z,98630.78
2023-04-07T02:24:25.283Z,98630.81
2023-04-07T02:26:30.696Z,98635.81
2023-04-07T02:28:36.675Z,98631.66
2023-04-07T02:30:42.067Z,98631.63
2023-04-07T02:32:47.215Z,98628.31
2023-04-07T02:34:52.919Z,98634.22
2023-04-07T02:37:01.012Z,98629.19
2023-04-07T02:39:06.820Z,98629.22
2023-04-07T02:41:11.862Z,98634.22
2023-04-07T02:43:19.208Z,98635.09
2023-04-07T02:45:24.490Z,98621.00
2023-04-07T02:47:29.526Z,98631.00
2023-04-07T02:49:34.852Z,98628.41
2023-04-07T02:51:39.868Z,98628.44
2023-04-07T02:53:47.470Z,98628.41
2023-04-07T02:55:52.610Z,98635.91
2023-04-07T02:57:57.668Z,98630.91
2023-04-07T03:00:17.964Z,98625.97
2023-04-07T03:02:38.679Z,98626.00
2023-04-07T03:04:45.722Z,98629.38
2023-04-07T03:06:51.120Z,98617.69
2023-04-07T03:08:58.735Z,98627.69
2023-04-07T03:11:04.086Z,98625.13
2023-04-07T03:13:10.575Z,98624.34
2023-04-07T03:15:18.757Z,98625.25
2023-04-07T03:17:25.956Z,98623.56
2023-04-07T03:19:31.166Z,98620.28
2023-04-07T03:21:36.305Z,98617.00
2023-04-07T03:23:41.910Z,98617.81
2023-04-07T03:25:49.898Z,98612.84
2023-04-07T03:27:55.290Z,98613.72
2023-04-07T03:30:01.473Z,98612.03
2023-04-07T03:32:07.491Z,98602.06
2023-04-07T03:34:12.876Z,98612.88
2023-04-07T03:36:18.048Z,98610.38
2023-04-07T03:38:24.563Z,98613.69
2023-04-07T03:40:36.142Z,98611.22
2023-04-07T03:42:43.834Z,98611.25
2023-04-07T03:44:51.608Z,98609.63
2023-04-07T03:46:56.660Z,98602.97
2023-04-07T03:49:03.109Z,98606.34
2023-04-07T03:51:10.794Z,98608.03
2023-04-07T03:53:16.981Z,98606.31
2023-04-07T03:55:23.173Z,98604.66
2023-04-07T03:57:31.493Z,98600.47
2023-04-07T03:59:39.129Z,98600.47
2023-04-07T04:01:45.237Z,98593.03
2023-04-07T04:03:54.243Z,98594.69
2023-04-07T04:06:04.922Z,98598.03
2023-04-07T04:08:11.156Z,98599.66
2023-04-07T04:10:19.003Z,98591.31
2023-04-07T04:12:27.716Z,98601.31
2023-04-07T04:14:44.961Z,98599.66
2023-04-07T04:16:52.573Z,98595.53
2023-04-07T04:19:20.524Z,98597.19
2023-04-07T04:21:27.369Z,98600.56
2023-04-07T04:23:32.448Z,98600.53
2023-04-07T04:25:39.732Z,98604.72
2023-04-07T04:27:47.036Z,98598.03
2023-04-07T04:30:07.144Z,98599.69
2023-04-07T04:32:38.624Z,98602.19
2023-04-07T04:34:44.698Z,98603.06
2023-04-07T04:36:51.427Z,98609.72
2023-04-07T04:38:58.024Z,98595.59
2023-04-07T04:41:03.089Z,98598.94
2023-04-07T04:43:09.934Z,98599.75
2023-04-07T04:45:20.496Z,98595.63
2023-04-07T04:47:27.361Z,98598.91
2023-04-07T04:49:32.564Z,98604.72
2023-04-07T04:51:40.418Z,98606.44
2023-04-07T04:53:52.170Z,98606.41
2023-04-07T04:55:59.384Z,98607.22
2023-04-07T04:58:23.980Z,98606.34
2023-04-07T05:00:35.625Z,98604.72
2023-04-07T05:02:43.976Z,98612.22
2023-04-07T05:04:49.657Z,98604.78
2023-04-07T05:07:01.852Z,98609.72
2023-04-07T05:09:09.835Z,98608.88
2023-04-07T05:11:21.566Z,98611.38
2023-04-07T05:13:31.236Z,98604.69
2023-04-07T05:15:43.708Z,98608.03
2023-04-07T05:17:51.520Z,98609.63
2023-04-07T05:20:01.851Z,98606.28
2023-04-07T05:22:24.627Z,98609.56
2023-04-07T05:24:31.995Z,98612.03
2023-04-07T05:26:39.246Z,98611.22
2023-04-07T05:28:44.703Z,98612.91
2023-04-07T05:30:57.929Z,98607.84
2023-04-07T05:33:07.905Z,98610.34
2023-04-07T05:35:26.460Z,98607.81
2023-04-07T05:37:34.689Z,98605.28
2023-04-07T05:39:42.436Z,98608.63
2023-04-07T05:41:51.139Z,98606.94
2023-04-07T05:43:57.573Z,98606.94
2023-04-07T05:46:08.101Z,98611.91
2023-04-07T05:48:18.837Z,98616.03
2023-04-07T05:50:26.058Z,98617.63
2023-04-07T05:52:31.597Z,98616.78
2023-04-07T05:54:47.324Z,98612.59
2023-04-07T05:56:53.674Z,98610.91
2023-04-07T05:59:02.036Z,98610.97
2023-04-07T06:01:10.600Z,98610.88
2023-04-07T06:03:15.693Z,98614.19
2023-04-07T06:05:31.467Z,98607.50
2023-04-07T06:07:36.631Z,98607.44
2023-04-07T06:09:43.239Z,98605.78
2023-04-07T06:11:48.345Z,98619.09
2023-04-07T06:13:54.373Z,98615.78
2023-04-07T06:15:59.989Z,98617.44
2023-04-07T06:18:07.681Z,98615.78
2023-04-07T06:20:14.347Z,98619.13
2023-04-07T06:22:19.399Z,98620.72
2023-04-07T06:24:25.694Z,98617.34
2023-04-07T06:26:30.860Z,98619.00
2023-04-07T06:28:36.276Z,98614.78
2023-04-07T06:30:41.732Z,98623.06
2023-04-07T06:32:49.913Z,98625.56
2023-04-07T06:34:57.685Z,98625.63
2023-04-07T06:37:03.948Z,98631.34
2023-04-07T06:39:09.257Z,98623.00
2023-04-07T06:41:17.216Z,98627.22
2023-04-07T06:43:22.500Z,98625.44
2023-04-07T06:45:33.491Z,98632.09
2023-04-07T06:47:38.580Z,98628.81
2023-04-07T06:49:44.201Z,98627.88
2023-04-07T06:51:51.851Z,98632.81
2023-04-07T06:53:57.114Z,98632.69
2023-04-07T06:56:09.810Z,98626.78
2023-04-07T06:58:15.166Z,98628.53
2023-04-07T07:00:23.334Z,98632.56
2023-04-07T07:02:28.526Z,98635.06
2023-04-07T07:04:34.049Z,98631.59
2023-04-07T07:06:39.544Z,98632.38
2023-04-07T07:08:47.127Z,98641.53
2023-04-07T07:10:52.751Z,98640.13
2023-04-07T07:12:57.767Z,98643.47
2023-04-07T07:15:03.506Z,98646.00
2023-04-07T07:17:08.506Z,98646.75
2023-04-07T07:19:14.602Z,98644.19
2023-04-07T07:21:21.510Z,98644.06
2023-04-07T07:23:26.511Z,98646.56
2023-04-07T07:25:34.623Z,98646.44
2023-04-07T07:27:39.707Z,98646.53
2023-04-07T07:29:44.985Z,98647.25
2023-04-07T07:31:50.618Z,98656.44
2023-04-07T07:33:56.280Z,98653.03
2023-04-07T07:36:01.811Z,98656.28
2023-04-07T07:38:06.935Z,98651.41
2023-04-07T07:40:12.936Z,98649.69
2023-04-07T07:42:21.217Z,98656.22
2023-04-07T07:44:26.297Z,98655.28
2023-04-07T07:46:31.856Z,98660.34
2023-04-07T07:48:36.932Z,98666.13
2023-04-07T07:50:42.950Z,98657.69
2023-04-07T07:52:48.023Z,98670.16
2023-04-07T07:54:54.275Z,98670.41
2023-04-07T07:57:00.273Z,98670.34
2023-04-07T07:59:09.201Z,98666.88
2023-04-07T08:01:14.232Z,98667.75
2023-04-07T08:03:22.766Z,98670.91
2023-04-07T08:05:28.157Z,98663.38
2023-04-07T08:07:33.617Z,98669.97
2023-04-07T08:09:38.600Z,98675.81
2023-04-07T08:11:44.610Z,98674.03
2023-04-07T08:13:49.912Z,98675.75
2023-04-07T08:15:57.848Z,98675.75
2023-04-07T08:18:04.899Z,98675.69
2023-04-07T08:20:13.090Z,98677.28
2023-04-07T08:22:20.018Z,98673.97
2023-04-07T08:24:25.067Z,98680.47
2023-04-07T08:26:30.503Z,98681.91
2023-04-07T08:28:35.547Z,98681.88
2023-04-07T08:30:40.829Z,98675.81
2023-04-07T08:32:49.011Z,98671.44
2023-04-07T08:34:54.090Z,98680.47
2023-04-07T08:36:59.493Z,98675.28
2023-04-07T08:39:05.855Z,98682.97
2023-04-07T08:41:15.373Z,98686.22
2023-04-07T08:43:23.509Z,98682.63
2023-04-07T08:45:29.210Z,98682.50
2023-04-07T08:47:37.483Z,98679.03
2023-04-07T08:49:47.682Z,98687.22
2023-04-07T08:51:55.665Z,98683.78
2023-04-07T08:54:09.645Z,98683.69
2023-04-07T08:56:15.869Z,98683.78
2023-04-07T08:58:22.209Z,98681.94
2023-04-07T09:00:27.630Z,98678.31
2023-04-07T09:02:34.225Z,98687.44
2023-04-07T09:04:39.481Z,98689.69
2023-04-07T09:06:47.121Z,98688.97
2023-04-07T09:08:52.374Z,98683.75
2023-04-07T09:10:57.916Z,98693.53
2023-04-07T09:13:03.263Z,98692.31
2023-04-07T09:15:10.933Z,98692.50
2023-04-07T09:17:16.536Z,98689.78
2023-04-07T09:19:22.224Z,98686.81
2023-04-07T09:21:27.338Z,98689.47
2023-04-07T09:23:37.804Z,98687.16
2023-04-07T09:25:42.833Z,98692.19
2023-04-07T09:28:02.423Z,98687.53
2023-04-07T09:30:15.908Z,98685.66
2023-04-07T09:32:39.774Z,98691.84
2023-04-07T09:34:45.299Z,98692.25
2023-04-07T09:36:50.308Z,98696.28
2023-04-07T09:38:58.151Z,98698.88
2023-04-07T09:41:10.697Z,98696.28
2023-04-07T09:43:20.353Z,98695.41
2023-04-07T09:47:38.371Z,98693.97
2023-04-07T09:49:54.684Z,98692.44
2023-04-07T09:52:05.065Z,98692.31
2023-04-07T09:54:12.865Z,98693.84
2023-04-07T09:56:19.851Z,98695.28
2023-04-07T09:58:24.943Z,98693.09
2023-04-07T10:00:30.780Z,98690.16
2023-04-07T10:02:36.295Z,98696.50
2023-04-07T10:04:42.569Z,98694.66
2023-04-07T10:06:48.825Z,98697.38
2023-04-07T10:08:54.123Z,98699.91
2023-04-07T10:11:02.893Z,98698.28
2023-04-07T10:13:09.189Z,98703.38
2023-04-07T10:15:17.146Z,98704.22
2023-04-07T10:17:23.298Z,98711.06
2023-04-07T10:19:32.643Z,98701.22
2023-04-07T10:21:42.418Z,98711.19
2023-04-07T10:23:57.064Z,98708.75
2023-04-07T10:26:06.852Z,98704.44
2023-04-07T10:28:14.700Z,98707.91
2023-04-07T10:30:26.086Z,98698.59
2023-04-07T10:32:31.719Z,98699.81
2023-04-07T10:35:03.897Z,98709.25
2023-04-07T10:37:18.006Z,98705.38
2023-04-07T10:39:25.712Z,98700.97
2023-04-07T10:41:42.158Z,98703.81
2023-04-07T10:43:47.375Z,98706.44
2023-04-07T10:46:02.303Z,98710.22
2023-04-07T10:48:14.424Z,98711.50
2023-04-07T10:50:24.990Z,98711.34
2023-04-07T10:52:31.007Z,98717.28
2023-04-07T10:54:36.514Z,98720.41
2023-04-07T10:57:14.501Z,98716.88
2023-04-07T10:59:27.912Z,98714.53
2023-04-07T11:01:35.037Z,98713.47
2023-04-07T11:03:42.487Z,98713.53
2023-04-07T11:05:47.735Z,98716.47
2023-04-07T11:08:06.064Z,98719.19
2023-04-07T11:10:16.090Z,98716.63
2023-04-07T11:12:31.415Z,98716.16
2023-04-07T11:14:37.852Z,98716.75
2023-04-07T11:16:46.110Z,98717.03
2023-04-07T11:18:52.419Z,98725.19
2023-04-07T11:20:59.669Z,98720.72
2023-04-07T11:23:04.698Z,98720.78
2023-04-07T11:25:27.854Z,98723.34
2023-04-07T11:27:36.680Z,98718.94
2023-04-07T11:29:43.842Z,98723.53
2023-04-07T11:31:51.826Z,98720.81
2023-04-07T11:33:59.074Z,98725.59
2023-04-07T11:36:05.859Z,98719.81
2023-04-07T11:38:11.410Z,98718.91
2023-04-07T11:40:34.451Z,98716.13
2023-04-07T11:42:46.788Z,98714.22
2023-04-07T11:44:51.840Z,98714.34
2023-04-07T11:46:58.841Z,98712.50
2023-04-07T11:49:14.518Z,98724.16
2023-04-07T11:51:20.924Z,98725.22
2023-04-07T11:53:32.198Z,98718.19
2023-04-07T11:55:37.356Z,98726.66
2023-04-07T11:57:44.996Z,98724.84
2023-04-07T11:59:49.980Z,98726.34
2023-04-07T12:01:57.731Z,98722.94
2023-04-07T12:04:05.183Z,98726.03
2023-04-07T12:06:10.992Z,98724.91
2023-04-07T12:08:17.685Z,98721.31
2023-04-07T12:10:23.886Z,98729.78
2023-04-07T12:12:30.663Z,98729.84
2023-04-07T12:14:39.150Z,98728.22
2023-04-07T12:16:44.178Z,98735.72
2023-04-07T12:18:49.463Z,98735.19
2023-04-07T12:20:54.488Z,98723.44
2023-04-07T12:23:00.615Z,98730.13
2023-04-07T12:25:05.629Z,98732.06
2023-04-07T12:27:11.153Z,98728.94
2023-04-07T12:29:16.370Z,98738.59
2023-04-07T12:31:24.576Z,98735.78
2023-04-07T12:33:29.746Z,98727.06
2023-04-07T12:35:35.513Z,98733.03
2023-04-07T12:37:40.555Z,98724.97
2023-04-07T12:39:45.545Z,98724.38
2023-04-07T12:41:53.348Z,98721.47
2023-04-07T12:43:58.540Z,98727.50
2023-04-07T12:46:03.567Z,98729.00
2023-04-07T12:48:11.195Z,98725.34
2023-04-07T12:50:16.232Z,98725.94
2023-04-07T12:52:21.237Z,98727.94
2023-04-07T12:54:26.239Z,98724.41
2023-04-07T12:56:31.738Z,98730.75
2023-04-07T12:58:36.860Z,98721.47
2023-04-07T13:00:42.987Z,98729.00
2023-04-07T13:02:48.477Z,98726.06
2023-04-07T13:04:56.298Z,98726.13
2023-04-07T13:07:03.190Z,98715.44
2023-04-07T13:09:08.245Z,98715.72
2023-04-07T13:11:13.285Z,98719.22
2023-04-07T13:13:18.456Z,98712.91
2023-04-07T13:15:23.550Z,98720.88
2023-04-07T13:17:29.152Z,98714.50
2023-04-07T13:19:35.557Z,98705.72
2023-04-07T13:21:47.260Z,98712.25
2023-04-07T13:23:53.486Z,98704.44
2023-04-07T13:25:58.504Z,98713.00
2023-04-07T13:28:03.581Z,98704.44
2023-04-07T13:30:10.988Z,98703.25
2023-04-07T13:32:17.119Z,98708.78
2023-04-07T13:34:22.184Z,98706.31
2023-04-07T13:36:28.872Z,98710.88
2023-04-07T13:38:36.787Z,98708.78
2023-04-07T13:40:41.947Z,98712.31
2023-04-07T13:42:47.051Z,98706.31
2023-04-07T13:44:54.573Z,98705.25
2023-04-07T13:47:00.454Z,98702.41
2023-04-07T13:49:06.453Z,98707.22
2023-04-07T13:51:12.709Z,98703.59
2023-04-07T13:53:19.219Z,98705.31
2023-04-07T13:55:27.088Z,98694.81
2023-04-07T13:57:32.103Z,98701.00
2023-04-07T13:59:37.218Z,98698.69
2023-04-07T14:01:42.471Z,98691.66
2023-04-07T14:03:48.325Z,98694.44
2023-04-07T14:05:53.625Z,98686.75
2023-04-07T14:07:58.620Z,98690.38
2023-04-07T14:10:03.636Z,98692.19
2023-04-07T14:12:11.310Z,98687.41
2023-04-07T14:14:16.401Z,98688.34
2023-04-07T14:16:21.835Z,98682.22
2023-04-07T14:18:28.158Z,98683.50
2023-04-07T14:20:33.423Z,98675.22
2023-04-07T14:22:38.544Z,98674.00
2023-04-07T14:24:44.115Z,98673.03
2023-04-07T14:26:51.226Z,98675.72
2023-04-07T14:28:59.192Z,98672.34
2023-04-07T14:31:04.283Z,98660.34
2023-04-07T14:33:09.439Z,98671.78
2023-04-07T14:35:14.595Z,98666.84
2023-04-07T14:37:24.214Z,98674.81
2023-04-07T14:39:29.594Z,98670.41
2023-04-07T14:41:34.832Z,98666.25
2023-04-07T14:43:39.896Z,98667.41
2023-04-07T14:45:47.552Z,98663.13
2023-04-07T14:47:52.899Z,98650.56
2023-04-07T14:49:58.268Z,98651.66
2023-04-07T14:52:03.659Z,98646.81
2023-04-07T14:54:08.717Z,98650.41
2023-04-07T14:56:13.768Z,98645.97
2023-04-07T14:58:19.402Z,98651.94
2023-04-07T15:00:25.453Z,98659.84
2023-04-07T15:02:33.230Z,98666.34
2023-04-07T15:04:38.773Z,98668.78
2023-04-07T15:06:47.225Z,98673.19
2023-04-07T15:08:52.601Z,98674.56
2023-04-07T15:10:58.230Z,98678.19
2023-04-07T15:13:03.410Z,98690.66
2023-04-07T15:15:09.888Z,98690.25
2023-04-07T15:17:14.944Z,98699.53
2023-04-07T15:19:22.985Z,98698.16
2023-04-07T15:21:28.821Z,98701.06
2023-04-07T15:23:34.055Z,98705.09
2023-04-07T15:25:39.131Z,98695.06
2023-04-07T15:27:44.189Z,98706.09
2023-04-07T15:29:49.163Z,98702.59
2023-04-07T15:31:54.265Z,98711.31
2023-04-07T15:33:59.316Z,98711.22
2023-04-07T15:36:07.633Z,98709.03
2023-04-07T15:38:13.782Z,98717.41
2023-04-07T15:40:19.258Z,98714.13
2023-04-07T15:42:24.259Z,98715.56
2023-04-07T15:44:29.272Z,98721.63
2023-04-07T15:46:34.733Z,98717.38
2023-04-07T15:48:39.880Z,98723.63
2023-04-07T15:50:45.004Z,98716.47
2023-04-07T15:52:52.765Z,98724.72
2023-04-07T15:54:58.824Z,98719.56
2023-04-07T15:57:03.931Z,98723.75
2023-04-07T15:59:09.148Z,98711.59
2023-04-07T16:01:14.837Z,98718.63
2023-04-07T16:03:20.253Z,98721.13
2023-04-07T16:05:25.594Z,98719.72
2023-04-07T16:07:30.767Z,98718.31
2023-04-07T16:09:38.676Z,98716.84
2023-04-07T16:11:43.685Z,98723.34
2023-04-07T16:13:48.806Z,98722.53
2023-04-07T16:15:57.763Z,98721.41
2023-04-07T16:18:03.410Z,98731.16
2023-04-07T16:20:14.648Z,98722.91
2023-04-07T16:22:20.100Z,98732.00
2023-04-07T16:24:25.257Z,98736.22
2023-04-07T16:26:33.042Z,98731.41
2023-04-07T16:28:39.287Z,98738.38
2023-04-07T16:30:45.393Z,98733.84
2023-04-07T16:32:50.917Z,98745.53
2023-04-07T16:34:56.694Z,98744.16
2023-04-07T16:37:01.885Z,98750.03
2023-04-07T16:39:07.348Z,98742.66
2023-04-07T16:41:12.337Z,98745.53
2023-04-07T16:43:20.279Z,98749.75
2023-04-07T16:45:25.276Z,98746.06
2023-04-07T16:47:31.106Z,98756.22
2023-04-07T16:49:36.181Z,98751.47
2023-04-07T16:51:41.344Z,98753.47
2023-04-07T16:53:46.716Z,98753.78
2023-04-07T16:55:51.961Z,98756.69
2023-04-07T16:57:56.988Z,98748.69
2023-04-07T17:00:04.725Z,98758.88
2023-04-07T17:02:11.923Z,98760.00
2023-04-07T17:04:17.488Z,98764.91
2023-04-07T17:06:23.282Z,98767.44
2023-04-07T17:08:28.390Z,98763.47
2023-04-07T17:10:34.373Z,98765.72
2023-04-07T17:12:40.094Z,98761.91
2023-04-07T17:14:45.915Z,98768.75
2023-04-07T17:16:53.540Z,98771.25
2023-04-07T17:18:58.546Z,98769.25
2023-04-07T17:21:03.546Z,98776.88
2023-04-07T17:23:09.425Z,98781.38
2023-04-07T17:25:14.624Z,98774.16
2023-04-07T17:27:20.614Z,98785.22
2023-04-07T17:29:29.158Z,98784.69
2023-04-07T17:31:35.964Z,98775.97
2023-04-07T17:33:43.644Z,98786.25
2023-04-07T17:35:51.030Z,98785.44
2023-04-07T17:37:56.698Z,98793.38
2023-04-07T17:40:03.718Z,98798.06
2023-04-07T17:42:11.216Z,98798.34
2023-04-07T17:44:18.329Z,98796.88
2023-04-07T17:46:26.045Z,98806.16
2023-04-07T17:48:32.329Z,98810.69
2023-04-07T17:50:40.472Z,98806.69
2023-04-07T17:52:45.730Z,98805.25
2023-04-07T17:54:51.079Z,98812.91
2023-04-07T17:56:56.578Z,98816.44
2023-04-07T17:59:01.760Z,98811.63
2023-04-07T18:01:07.101Z,98816.81
2023-04-07T18:03:14.647Z,98815.41
2023-04-07T18:05:20.927Z,98826.56
2023-04-07T18:07:29.421Z,98832.78
2023-04-07T18:09:34.642Z,98834.78
2023-04-07T18:11:40.291Z,98836.72
2023-04-07T18:13:45.321Z,98837.81
2023-04-07T18:15:51.190Z,98844.66
2023-04-07T18:17:56.331Z,98842.38
2023-04-07T18:20:02.242Z,98847.63
2023-04-07T18:22:10.144Z,98850.38
2023-04-07T18:24:17.833Z,98853.06
2023-04-07T18:26:22.821Z,98861.50
2023-04-07T18:28:27.931Z,98857.50
2023-04-07T18:30:33.128Z,98861.81
2023-04-07T18:32:38.160Z,98864.47
2023-04-07T18:34:43.666Z,98870.44
2023-04-07T18:36:49.720Z,98864.66
2023-04-07T18:38:54.797Z,98867.25
2023-04-07T18:41:02.486Z,98872.31
2023-04-07T18:43:07.537Z,98879.06
2023-04-07T18:45:13.483Z,98874.13
2023-04-07T18:47:19.044Z,98879.97
2023-04-07T18:49:24.750Z,98889.16
2023-04-07T18:51:31.875Z,98887.56
2023-04-07T18:53:36.882Z,98886.78
2023-04-07T18:55:41.900Z,98890.16
2023-04-07T18:57:49.956Z,98897.66
2023-04-07T18:59:55.467Z,98899.34
2023-04-07T19:02:01.057Z,98899.41
2023-04-07T19:04:06.300Z,98900.25
2023-04-07T19:06:12.331Z,98906.09
2023-04-07T19:08:18.165Z,98906.97
2023-04-07T19:10:23.714Z,98904.50
2023-04-07T19:12:28.931Z,98909.53
2023-04-07T19:14:36.510Z,98914.53
2023-04-07T19:16:41.957Z,98916.19
2023-04-07T19:18:47.619Z,98919.56
2023-04-07T19:20:52.620Z,98917.91
2023-04-07T19:22:57.602Z,98915.41
2023-04-07T19:25:02.625Z,98922.91
2023-04-07T19:27:08.163Z,98921.25
2023-04-07T19:29:13.797Z,98931.19
2023-04-07T19:31:21.402Z,98932.88
2023-04-07T19:33:26.676Z,98932.84
2023-04-07T19:35:31.760Z,98933.69
2023-04-07T19:37:38.001Z,98934.50
2023-04-07T19:39:52.194Z,98939.47
2023-04-07T19:44:18.616Z,98941.09
2023-04-07T19:46:26.337Z,98941.06
2023-04-07T19:48:32.905Z,98939.41
2023-04-07T19:50:43.716Z,98941.03
2023-04-07T19:52:50.466Z,98946.84
2023-04-07T19:54:56.069Z,98947.66
2023-04-07T19:57:01.839Z,98948.47
2023-04-07T19:59:07.363Z,98942.63
2023-04-07T20:01:19.588Z,98939.28
2023-04-07T20:03:27.349Z,98945.09
2023-04-07T20:05:32.463Z,98946.72
2023-04-07T20:07:37.508Z,98941.78
2023-04-07T20:09:42.740Z,98950.09
2023-04-07T20:11:48.281Z,98951.72
2023-04-07T20:13:53.497Z,98943.41
2023-04-07T20:15:58.648Z,98951.66
2023-04-07T20:18:03.900Z,98953.34
2023-04-07T20:20:13.462Z,98955.81
2023-04-07T20:22:18.616Z,98954.94
2023-04-07T20:24:23.884Z,98954.09
2023-04-07T20:26:28.936Z,98955.66
2023-04-07T20:28:34.208Z,98958.09
2023-04-07T20:30:39.232Z,98961.34
2023-04-07T20:32:46.089Z,98957.22
2023-04-07T20:34:52.283Z,98963.03
2023-04-07T20:37:01.689Z,98966.28
2023-04-07T20:39:07.116Z,98960.41
2023-04-07T20:41:16.729Z,98964.53
2023-04-07T20:43:23.980Z,98972.06
2023-04-07T20:45:29.189Z,98976.94
2023-04-07T20:47:36.722Z,98979.41
2023-04-07T20:49:44.389Z,98971.97
2023-04-07T20:51:49.427Z,98977.00
2023-04-07T20:53:57.211Z,98977.06
2023-04-07T20:56:03.105Z,98974.41
2023-04-07T20:58:08.312Z,98979.41
2023-04-07T21:00:14.572Z,98979.38
2023-04-07T21:02:19.638Z,98981.91
2023-04-07T21:04:25.098Z,98983.53
2023-04-07T21:06:30.171Z,98983.44
2023-04-07T21:08:35.349Z,98978.41
2023-04-07T21:10:42.915Z,98978.47
2023-04-07T21:12:47.927Z,98979.19
2023-04-07T21:14:53.430Z,98980.00
2023-04-07T21:16:58.450Z,98988.19
2023-04-07T21:19:03.945Z,98986.41
2023-04-07T21:21:09.177Z,98983.03
2023-04-07T21:23:14.204Z,98982.09
2023-04-07T21:25:19.942Z,98983.72
2023-04-07T21:27:27.659Z,98979.50
2023-04-07T21:29:33.686Z,98991.16
2023-04-07T21:31:39.270Z,98984.47
2023-04-07T21:33:44.452Z,98981.13
2023-04-07T21:35:49.851Z,98989.34
2023-04-07T21:37:54.946Z,98992.59
2023-04-07T21:40:00.516Z,99000.06
2023-04-07T21:42:06.049Z,98999.97
2023-04-07T21:44:20.166Z,99001.50
2023-04-07T21:46:25.202Z,99000.66
2023-04-07T21:48:30.466Z,98998.97
2023-04-07T21:50:35.691Z,98998.13
2023-04-07T21:52:42.593Z,98994.97
2023-04-07T21:54:47.961Z,98999.03
2023-04-07T21:56:52.949Z,99003.06
2023-04-07T21:58:58.457Z,99008.78
2023-04-07T22:01:07.171Z,99002.03
2023-04-07T22:03:12.677Z,99003.69
2023-04-07T22:05:18.444Z,99001.91
2023-04-07T22:07:23.456Z,99005.25
2023-04-07T22:09:29.908Z,99004.44
2023-04-07T22:11:34.960Z,99013.50
2023-04-07T22:13:40.224Z,99011.91
2023-04-07T22:15:45.397Z,99011.94
2023-04-07T22:17:53.381Z,99013.50
2023-04-07T22:19:58.773Z,99008.44
2023-04-07T22:22:03.774Z,99011.66
2023-04-07T22:24:09.082Z,99011.53
2023-04-07T22:26:14.500Z,99017.28
2023-04-07T22:28:19.807Z,99014.59
2023-04-07T22:30:25.900Z,99016.16
2023-04-07T22:32:31.092Z,99022.97
2023-04-07T22:34:38.944Z,99031.25
2023-04-07T22:36:44.664Z,99026.06
2023-04-07T22:38:49.897Z,99024.25
2023-04-07T22:40:55.816Z,99031.47
2023-04-07T22:43:01.468Z,99038.94
2023-04-07T22:45:08.634Z,99034.63
2023-04-07T22:47:13.651Z,99034.56
2023-04-07T22:49:18.656Z,99035.28
2023-04-07T22:51:27.470Z,99040.31
2023-04-07T22:53:32.502Z,99041.09
2023-04-07T22:55:38.410Z,99037.88
2023-04-07T22:57:43.410Z,99045.28
2023-04-07T22:59:48.398Z,99041.25
2023-04-07T23:01:56.312Z,99043.78
2023-04-07T23:04:02.848Z,99039.78
2023-04-07T23:06:08.433Z,99046.34
2023-04-07T23:08:16.170Z,99046.31
2023-04-07T23:10:21.837Z,99045.50
2023-04-07T23:12:27.062Z,99043.06
2023-04-07T23:14:32.056Z,99053.19
2023-04-07T23:16:37.890Z,99049.25
2023-04-07T23:18:43.328Z,99051.09
2023-04-07T23:20:54.363Z,99053.63
2023-04-07T23:22:59.346Z,99051.88
2023-04-07T23:25:08.407Z,99052.63
2023-04-07T23:27:13.413Z,99054.38
2023-04-07T23:29:18.419Z,99059.41
2023-04-07T23:31:24.056Z,99065.34
2023-04-07T23:33:29.062Z,99061.41
2023-04-07T23:35:34.369Z,99066.41
2023-04-07T23:37:39.882Z,99064.69
2023-04-07T23:39:44.898Z,99063.84
2023-04-07T23:41:52.738Z,99071.28
2023-04-07T23:43:57.768Z,99058.84
2023-04-07T23:46:03.369Z,99060.50
2023-04-07T23:48:09.676Z,99064.78
2023-04-07T23:50:14.925Z,99060.66
2023-04-07T23:52:21.867Z,99062.31
2023-04-07T23:54:27.294Z,99064.09
2023-04-07T23:56:32.550Z,99064.94
2023-04-07T23:58:40.674Z,99066.63
